createdAt,value
2019-05-09T00:01:03.829Z,10.72
2019-05-09T00:03:30.352Z,9.50
2019-05-09T00:05:56.675Z,9.80
2019-05-09T00:08:23.192Z,10.10
2019-05-09T00:10:49.510Z,10.30
2019-05-09T00:13:16.173Z,8.80
2019-05-09T00:15:43.696Z,7.72
2019-05-09T00:18:14.018Z,6.80
2019-05-09T00:20:43.465Z,7.08
2019-05-09T00:23:09.745Z,6.80
2019-05-09T00:25:36.084Z,6.28
2019-05-09T00:28:04.069Z,6.75
2019-05-09T00:30:48.850Z,6.65
2019-05-09T00:33:17.210Z,6.90
2019-05-09T00:35:44.264Z,6.92
2019-05-09T00:38:10.618Z,6.47
2019-05-09T00:40:36.926Z,7.70
2019-05-09T00:43:04.103Z,7.67
2019-05-09T00:45:33.373Z,6.28
2019-05-09T00:47:59.767Z,6.85
2019-05-09T00:50:29.280Z,5.50
2019-05-09T00:52:54.198Z,5.90
2019-05-09T00:55:20.549Z,6.90
2019-05-09T00:57:46.812Z,6.05
2019-05-09T01:00:15.431Z,7.33
2019-05-09T01:02:43.531Z,7.72
2019-05-09T01:05:10.155Z,7.58
2019-05-09T01:07:36.603Z,8.70
2019-05-09T01:10:04.850Z,6.90
2019-05-09T01:12:31.216Z,8.45
2019-05-09T01:14:57.484Z,8.05
2019-05-09T01:17:24.141Z,8.43
2019-05-09T01:19:50.704Z,8.00
2019-05-09T01:22:17.059Z,7.25
2019-05-09T01:24:44.311Z,7.78
2019-05-09T01:27:10.757Z,7.37
2019-05-09T01:29:37.005Z,9.08
2019-05-09T01:32:08.161Z,7.67
2019-05-09T01:34:35.903Z,7.28
2019-05-09T01:37:03.527Z,6.50
2019-05-09T01:39:30.101Z,7.25
2019-05-09T01:41:56.410Z,6.90
2019-05-09T01:44:23.989Z,6.78
2019-05-09T01:46:50.524Z,6.70
2019-05-09T01:49:18.651Z,6.65
2019-05-09T01:51:44.949Z,6.78
2019-05-09T01:54:13.198Z,6.47
2019-05-09T01:56:39.693Z,7.83
2019-05-09T01:59:05.944Z,9.95
2019-05-09T02:01:34.397Z,9.40
2019-05-09T02:04:00.782Z,7.97
2019-05-09T02:06:27.651Z,8.45
2019-05-09T02:08:54.606Z,9.80
2019-05-09T02:11:23.513Z,9.35
2019-05-09T02:13:49.257Z,10.90
2019-05-09T02:16:34.320Z,11.50
2019-05-09T02:19:13.613Z,10.20
2019-05-09T02:21:39.770Z,11.80
2019-05-09T02:24:06.035Z,9.80
2019-05-09T02:26:33.495Z,12.03
2019-05-09T02:28:59.905Z,11.55
2019-05-09T02:31:26.321Z,11.90
2019-05-09T02:33:54.165Z,13.80
2019-05-09T02:36:20.627Z,14.30
2019-05-09T02:38:48.759Z,14.13
2019-05-09T02:41:15.245Z,13.08
2019-05-09T02:43:41.494Z,13.15
2019-05-09T02:46:12.714Z,15.48
2019-05-09T02:48:39.075Z,16.10
2019-05-09T02:51:05.346Z,15.43
2019-05-09T02:53:31.679Z,16.97
2019-05-09T02:55:58.650Z,17.75
2019-05-09T02:58:28.176Z,16.80
2019-05-09T03:01:02.590Z,17.82
2019-05-09T03:03:33.468Z,19.30
2019-05-09T03:05:59.994Z,18.90
2019-05-09T03:08:29.366Z,19.73
2019-05-09T03:10:54.672Z,16.85
2019-05-09T03:13:21.147Z,20.23
2019-05-09T03:15:49.505Z,21.40
2019-05-09T03:18:17.714Z,16.65
2019-05-09T03:20:48.954Z,21.17
2019-05-09T03:23:13.870Z,21.37
2019-05-09T03:25:41.029Z,20.08
2019-05-09T03:28:09.906Z,19.17
2019-05-09T03:30:39.655Z,21.05
2019-05-09T03:33:09.955Z,23.15
2019-05-09T03:35:34.368Z,22.95
2019-05-09T03:38:08.216Z,22.67
2019-05-09T03:40:37.722Z,23.55
2019-05-09T03:43:05.036Z,24.55
2019-05-09T03:45:33.591Z,27.65
2019-05-09T03:48:04.753Z,30.48
2019-05-09T03:50:30.984Z,25.65
2019-05-09T03:52:57.967Z,27.65
2019-05-09T03:55:44.287Z,31.07
2019-05-09T03:58:15.130Z,33.00
2019-05-09T04:00:41.461Z,35.17
2019-05-09T04:03:08.248Z,34.75
2019-05-09T04:05:34.692Z,32.65
2019-05-09T04:08:18.264Z,34.95
2019-05-09T04:10:47.039Z,36.05
2019-05-09T04:13:35.398Z,34.60
2019-05-09T04:16:01.881Z,34.92
2019-05-09T04:18:28.137Z,29.92
2019-05-09T04:20:54.360Z,26.85
2019-05-09T04:23:20.562Z,33.90
2019-05-09T04:25:51.795Z,34.55
2019-05-09T04:28:18.175Z,30.60
2019-05-09T04:30:44.487Z,36.05
2019-05-09T04:33:10.708Z,33.02
2019-05-09T04:35:38.269Z,34.67
2019-05-09T04:38:04.975Z,25.82
2019-05-09T04:40:32.156Z,28.87
2019-05-09T04:43:10.973Z,27.17
2019-05-09T04:45:38.800Z,26.70
2019-05-09T04:48:02.502Z,32.67
2019-05-09T04:50:28.744Z,30.37
2019-05-09T04:52:55.043Z,39.10
2019-05-09T04:55:23.090Z,35.30
2019-05-09T04:57:49.380Z,35.13
2019-05-09T05:00:18.431Z,33.88
2019-05-09T05:02:48.476Z,38.88
2019-05-09T05:05:14.892Z,30.60
2019-05-09T05:07:41.141Z,36.05
2019-05-09T05:10:09.007Z,39.65
2019-05-09T05:12:35.429Z,42.75
2019-05-09T05:15:03.406Z,38.02
2019-05-09T05:17:30.700Z,39.58
2019-05-09T05:19:58.142Z,42.23
2019-05-09T05:22:28.391Z,42.10
2019-05-09T05:24:59.474Z,47.85
2019-05-09T05:27:24.436Z,46.88
2019-05-09T05:29:50.828Z,48.65
2019-05-09T05:32:28.290Z,47.17
2019-05-09T05:34:59.516Z,52.23
2019-05-09T05:37:28.011Z,50.38
2019-05-09T05:39:53.816Z,45.43
2019-05-09T05:42:22.208Z,49.38
2019-05-09T05:44:48.253Z,51.58
2019-05-09T05:47:18.011Z,51.15
2019-05-09T05:49:44.440Z,53.95
2019-05-09T05:52:10.678Z,56.40
2019-05-09T05:54:39.194Z,52.13
2019-05-09T05:57:05.109Z,57.48
2019-05-09T05:59:31.398Z,52.65
2019-05-09T06:01:58.537Z,49.67
2019-05-09T06:04:24.800Z,52.25
2019-05-09T06:06:51.104Z,50.12
2019-05-09T06:09:19.016Z,56.02
2019-05-09T06:11:45.556Z,49.95
2019-05-09T06:14:12.076Z,53.60
2019-05-09T06:16:38.589Z,55.92
2019-05-09T06:19:04.983Z,53.68
2019-05-09T06:21:31.253Z,48.30
2019-05-09T06:23:58.395Z,48.48
2019-05-09T06:26:24.976Z,44.93
2019-05-09T06:28:51.359Z,54.05
2019-05-09T06:31:17.992Z,54.27
2019-05-09T06:33:47.265Z,49.80
2019-05-09T06:36:12.572Z,50.12
2019-05-09T06:38:38.899Z,45.88
2019-05-09T06:41:05.395Z,47.35
2019-05-09T06:43:42.555Z,50.28
2019-05-09T06:46:13.603Z,48.42
2019-05-09T06:48:41.067Z,42.35
2019-05-09T06:51:07.522Z,46.60
2019-05-09T06:53:34.049Z,46.83
2019-05-09T06:56:00.413Z,46.20
2019-05-09T06:58:33.803Z,45.92
2019-05-09T07:01:07.666Z,43.35
2019-05-09T07:03:38.844Z,43.28
2019-05-09T07:06:09.770Z,40.98
2019-05-09T07:08:38.112Z,44.33
2019-05-09T07:11:04.366Z,44.90
2019-05-09T07:13:30.740Z,49.33
2019-05-09T07:15:58.547Z,50.35
2019-05-09T07:18:32.465Z,49.93
2019-05-09T07:20:58.755Z,51.45
2019-05-09T07:23:25.013Z,50.60
2019-05-09T07:25:58.944Z,56.28
2019-05-09T07:28:25.195Z,55.45
2019-05-09T07:30:59.038Z,54.00
2019-05-09T07:33:27.828Z,57.78
2019-05-09T07:35:54.618Z,55.73
2019-05-09T07:38:30.964Z,53.85
2019-05-09T07:40:59.870Z,57.33
2019-05-09T07:43:28.198Z,55.38
2019-05-09T07:46:12.089Z,54.60
2019-05-09T07:48:40.368Z,52.53
2019-05-09T07:51:07.805Z,47.95
2019-05-09T07:53:34.499Z,50.52
2019-05-09T07:56:01.038Z,51.70
2019-05-09T07:58:28.381Z,51.53
2019-05-09T08:00:58.224Z,50.38
2019-05-09T08:03:22.921Z,49.18
2019-05-09T08:05:49.276Z,51.73
2019-05-09T08:08:18.320Z,49.40
2019-05-09T08:10:44.349Z,49.00
2019-05-09T08:13:11.947Z,48.65
2019-05-09T08:15:38.570Z,50.17
2019-05-09T08:18:05.096Z,50.28
2019-05-09T08:20:31.350Z,50.85
2019-05-09T08:23:01.572Z,50.98
2019-05-09T08:25:27.723Z,49.13
2019-05-09T08:27:53.900Z,48.70
2019-05-09T08:30:20.457Z,48.75
2019-05-09T08:32:48.262Z,46.05
2019-05-09T08:35:14.937Z,45.78
2019-05-09T08:37:41.541Z,45.40
2019-05-09T08:40:08.454Z,44.33
2019-05-09T08:42:34.808Z,44.38
2019-05-09T08:45:02.820Z,44.35
2019-05-09T08:47:29.185Z,42.55
2019-05-09T08:49:58.746Z,44.15
2019-05-09T08:52:25.454Z,43.83
2019-05-09T08:54:57.874Z,43.00
2019-05-09T08:57:24.411Z,43.75
2019-05-09T08:59:51.156Z,44.63
2019-05-09T09:02:21.836Z,44.35
2019-05-09T09:04:48.834Z,43.83
2019-05-09T09:07:14.876Z,43.45
2019-05-09T09:09:41.419Z,40.08
2019-05-09T09:12:23.075Z,41.00
2019-05-09T09:14:38.309Z,39.65
2019-05-09T09:17:04.209Z,39.95
2019-05-09T09:19:30.494Z,38.70
2019-05-09T09:22:00.213Z,38.30
2019-05-09T09:24:25.000Z,36.48
2019-05-09T09:26:51.234Z,37.17
2019-05-09T09:29:18.946Z,36.48
2019-05-09T09:31:48.181Z,35.38
2019-05-09T09:34:14.123Z,32.98
2019-05-09T09:36:40.446Z,33.92
2019-05-09T09:39:08.008Z,35.10
2019-05-09T09:41:34.766Z,34.73
2019-05-09T09:44:04.651Z,33.83
2019-05-09T09:46:31.058Z,31.93
2019-05-09T09:48:58.594Z,32.70
2019-05-09T09:51:27.463Z,34.33
2019-05-09T09:53:53.559Z,32.58
2019-05-09T09:56:22.390Z,30.75
2019-05-09T09:58:52.888Z,28.92
2019-05-09T10:01:28.816Z,25.85
2019-05-09T10:03:58.140Z,27.22
2019-05-09T10:06:28.495Z,26.33
2019-05-09T10:08:54.921Z,28.40
2019-05-09T10:11:23.658Z,27.37
2019-05-09T10:13:51.941Z,26.73
2019-05-09T10:16:38.848Z,22.98
2019-05-09T10:19:18.937Z,24.12
2019-05-09T10:21:48.557Z,23.42
2019-05-09T10:24:17.363Z,21.23
2019-05-09T10:27:01.963Z,20.62
2019-05-09T10:29:28.229Z,21.75
2019-05-09T10:31:54.485Z,20.70
2019-05-09T10:34:21.137Z,20.65
2019-05-09T10:36:47.652Z,20.80
2019-05-09T10:39:13.965Z,16.20
2019-05-09T10:41:40.210Z,17.67
2019-05-09T10:44:14.191Z,15.75
2019-05-09T10:46:57.136Z,15.03
2019-05-09T10:49:19.679Z,14.18
2019-05-09T10:51:48.346Z,15.68
2019-05-09T10:54:14.235Z,14.68
2019-05-09T10:56:40.632Z,13.08
2019-05-09T10:59:07.795Z,18.10
2019-05-09T11:01:34.383Z,15.80
2019-05-09T11:04:00.714Z,15.20
2019-05-09T11:06:28.693Z,17.17
2019-05-09T11:08:55.344Z,17.77
2019-05-09T11:11:24.606Z,17.35
2019-05-09T11:13:50.952Z,14.43
2019-05-09T11:16:18.429Z,13.95
2019-05-09T11:18:44.988Z,12.33
2019-05-09T11:21:11.550Z,14.10
2019-05-09T11:23:39.329Z,13.00
2019-05-09T11:26:05.765Z,14.00
2019-05-09T11:28:33.754Z,13.45
2019-05-09T11:31:00.148Z,14.40
2019-05-09T11:33:27.817Z,12.07
2019-05-09T11:35:54.509Z,11.43
2019-05-09T11:38:33.280Z,11.57
2019-05-09T11:40:48.885Z,12.35
2019-05-09T11:43:17.548Z,7.60
2019-05-09T11:45:43.403Z,8.58
2019-05-09T11:48:09.667Z,7.72
2019-05-09T11:50:38.669Z,10.25
2019-05-09T11:53:04.339Z,8.30
2019-05-09T11:55:36.410Z,7.22
2019-05-09T11:57:59.217Z,7.97
2019-05-09T12:00:25.822Z,7.97
2019-05-09T12:02:52.209Z,10.70
2019-05-09T12:05:19.288Z,7.10
2019-05-09T12:07:45.775Z,9.48
2019-05-09T12:10:12.225Z,4.45
2019-05-09T12:12:39.105Z,5.33
2019-05-09T12:15:08.553Z,4.85
2019-05-09T12:17:49.779Z,5.28
2019-05-09T12:20:12.425Z,5.55
2019-05-09T12:22:32.068Z,4.90
2019-05-09T12:24:59.273Z,3.70
2019-05-09T12:27:28.002Z,4.00
2019-05-09T12:29:54.279Z,4.12
2019-05-09T12:32:20.648Z,3.20
2019-05-09T12:34:48.011Z,4.53
2019-05-09T12:37:18.252Z,4.97
2019-05-09T12:39:44.931Z,3.75
2019-05-09T12:42:11.280Z,4.40
2019-05-09T12:44:37.634Z,5.30
2019-05-09T12:47:03.868Z,5.92
2019-05-09T12:49:30.140Z,3.60
2019-05-09T12:51:58.170Z,4.97
2019-05-09T12:54:24.645Z,4.03
2019-05-09T12:56:50.955Z,4.97
2019-05-09T12:59:18.736Z,3.33
2019-05-09T13:01:45.239Z,3.27
2019-05-09T13:04:11.612Z,3.85
2019-05-09T13:06:38.177Z,7.35
2019-05-09T13:09:05.488Z,4.50
2019-05-09T13:11:31.876Z,3.12
2019-05-09T13:13:58.153Z,3.98
2019-05-09T13:16:42.592Z,4.35
2019-05-09T13:18:59.214Z,4.30
2019-05-09T13:21:27.847Z,5.17
2019-05-09T13:23:53.145Z,3.80
2019-05-09T13:26:19.992Z,2.37
2019-05-09T13:28:48.731Z,4.50
2019-05-09T13:31:14.638Z,2.45
2019-05-09T13:33:41.285Z,4.58
2019-05-09T13:36:09.223Z,3.05
2019-05-09T13:38:37.791Z,3.47
2019-05-09T13:41:03.845Z,3.45
2019-05-09T13:43:30.071Z,5.28
2019-05-09T13:45:58.680Z,3.77
2019-05-09T13:48:46.815Z,3.77
2019-05-09T13:50:53.888Z,3.85
2019-05-09T13:53:22.193Z,4.20
2019-05-09T13:55:48.470Z,4.53
2019-05-09T13:58:14.770Z,5.20
2019-05-09T14:00:55.770Z,3.75
2019-05-09T14:03:09.418Z,4.62
2019-05-09T14:05:35.762Z,3.62
2019-05-09T14:08:03.662Z,5.58
2019-05-09T14:10:30.057Z,4.70
2019-05-09T14:13:07.055Z,4.03
2019-05-09T14:15:24.788Z,5.92
2019-05-09T14:17:53.874Z,4.22
2019-05-09T14:20:19.504Z,4.15
2019-05-09T14:22:45.827Z,5.10
2019-05-09T14:25:12.247Z,5.55
2019-05-09T14:27:38.591Z,6.75
2019-05-09T14:30:07.856Z,3.90
2019-05-09T14:32:34.964Z,5.17
2019-05-09T14:35:01.427Z,3.35
2019-05-09T14:37:28.395Z,4.28
2019-05-09T14:39:58.802Z,5.65
2019-05-09T14:42:23.456Z,4.50
2019-05-09T14:44:49.861Z,5.15
2019-05-09T14:47:17.701Z,3.80
2019-05-09T14:49:44.828Z,2.70
2019-05-09T14:52:11.324Z,3.77
2019-05-09T14:54:39.159Z,4.00
2019-05-09T14:57:05.699Z,2.72
2019-05-09T14:59:31.990Z,3.47
2019-05-09T15:01:59.099Z,4.83
2019-05-09T15:04:27.815Z,4.40
2019-05-09T15:06:54.083Z,3.37
2019-05-09T15:09:20.412Z,2.72
2019-05-09T15:11:48.452Z,4.40
2019-05-09T15:14:14.793Z,3.30
2019-05-09T15:16:41.123Z,2.98
2019-05-09T15:19:08.419Z,4.72
2019-05-09T15:21:37.971Z,4.40
2019-05-09T15:24:03.489Z,4.37
2019-05-09T15:26:33.448Z,4.25
2019-05-09T15:28:59.745Z,4.28
2019-05-09T15:31:28.626Z,4.92
2019-05-09T15:33:54.787Z,5.10
2019-05-09T15:36:21.078Z,3.70
2019-05-09T15:38:48.590Z,4.67
2019-05-09T15:41:15.458Z,3.08
2019-05-09T15:43:41.763Z,4.90
2019-05-09T15:46:12.770Z,5.25
2019-05-09T15:48:39.371Z,3.20
2019-05-09T15:51:07.570Z,3.55
2019-05-09T15:53:34.060Z,3.50
2019-05-09T15:56:00.859Z,3.10
2019-05-09T15:58:28.765Z,4.10
2019-05-09T16:00:55.450Z,4.08
2019-05-09T16:03:22.006Z,3.90
2019-05-09T16:05:48.309Z,3.85
2019-05-09T16:08:15.061Z,3.72
2019-05-09T16:10:41.407Z,6.37
2019-05-09T16:13:08.192Z,3.92
2019-05-09T16:15:34.731Z,4.58
2019-05-09T16:18:01.108Z,4.33
2019-05-09T16:20:36.918Z,5.95
2019-05-09T16:22:57.224Z,3.37
2019-05-09T16:25:23.835Z,3.40
2019-05-09T16:27:50.567Z,5.80
2019-05-09T16:30:17.231Z,4.47
2019-05-09T16:32:43.840Z,3.35
2019-05-09T16:35:10.316Z,4.22
2019-05-09T16:37:56.881Z,5.60
2019-05-09T16:40:05.440Z,4.55
2019-05-09T16:42:31.802Z,6.12
2019-05-09T16:44:59.311Z,5.47
2019-05-09T16:47:28.293Z,5.72
2019-05-09T16:49:53.969Z,5.80
2019-05-09T16:52:20.342Z,6.50
2019-05-09T16:54:50.168Z,7.22
2019-05-09T16:57:18.200Z,4.60
2019-05-09T16:59:47.842Z,4.72
2019-05-09T17:02:23.822Z,6.55
2019-05-09T17:04:42.439Z,5.22
2019-05-09T17:07:08.725Z,4.92
2019-05-09T17:09:38.837Z,4.58
2019-05-09T17:12:05.221Z,5.33
2019-05-09T17:14:31.445Z,6.03
2019-05-09T17:16:59.886Z,4.35
2019-05-09T17:19:28.311Z,5.15
2019-05-09T17:21:58.526Z,5.50
2019-05-09T17:24:24.940Z,6.00
2019-05-09T17:26:51.425Z,5.83
2019-05-09T17:29:18.493Z,3.87
2019-05-09T17:31:45.189Z,4.10
2019-05-09T17:34:11.533Z,6.28
2019-05-09T17:36:38.508Z,3.98
2019-05-09T17:39:07.812Z,4.97
2019-05-09T17:41:33.847Z,3.87
2019-05-09T17:44:00.281Z,5.60
2019-05-09T17:46:27.519Z,5.62
2019-05-09T17:48:54.093Z,4.42
2019-05-09T17:51:32.682Z,4.87
2019-05-09T17:53:51.879Z,5.03
2019-05-09T17:56:17.004Z,3.22
2019-05-09T17:58:43.347Z,4.78
2019-05-09T18:01:09.880Z,5.20
2019-05-09T18:03:38.418Z,3.98
2019-05-09T18:06:04.684Z,6.08
2019-05-09T18:08:31.042Z,6.53
2019-05-09T18:10:58.395Z,5.08
2019-05-09T18:13:24.960Z,4.50
2019-05-09T18:15:51.341Z,5.62
2019-05-09T18:18:18.479Z,5.65
2019-05-09T18:20:45.116Z,6.55
2019-05-09T18:23:11.622Z,4.97
2019-05-09T18:25:38.140Z,7.17
2019-05-09T18:28:04.687Z,4.12
2019-05-09T18:30:31.161Z,4.97
2019-05-09T18:33:08.158Z,5.97
2019-05-09T18:35:34.630Z,4.12
2019-05-09T18:38:01.036Z,5.85
2019-05-09T18:40:28.173Z,6.55
2019-05-09T18:42:54.793Z,6.17
2019-05-09T18:45:21.685Z,6.80
2019-05-09T18:47:48.268Z,4.62
2019-05-09T18:50:16.216Z,4.45
2019-05-09T18:52:42.597Z,3.80
2019-05-09T18:55:09.921Z,3.27
2019-05-09T18:57:36.470Z,4.97
2019-05-09T19:00:08.962Z,4.72
2019-05-09T19:02:35.974Z,3.70
2019-05-09T19:05:06.672Z,3.75
2019-05-09T19:07:33.178Z,5.90
2019-05-09T19:09:59.531Z,4.45
2019-05-09T19:12:25.882Z,5.97
2019-05-09T19:14:52.525Z,4.45
2019-05-09T19:17:21.395Z,4.00
2019-05-09T19:20:07.969Z,4.00
2019-05-09T19:22:34.252Z,4.72
2019-05-09T19:25:00.587Z,3.75
2019-05-09T19:27:26.891Z,3.70
2019-05-09T19:29:53.133Z,4.10
2019-05-09T19:32:19.651Z,4.62
2019-05-09T19:34:45.929Z,6.10
2019-05-09T19:37:14.533Z,5.55
2019-05-09T19:39:41.098Z,5.83
2019-05-09T19:42:07.374Z,5.55
2019-05-09T19:44:33.756Z,6.03
2019-05-09T19:47:01.712Z,5.65
2019-05-09T19:49:28.180Z,6.78
2019-05-09T19:51:54.573Z,7.60
2019-05-09T19:54:21.037Z,8.13
2019-05-09T19:56:47.481Z,5.25
2019-05-09T19:59:13.780Z,5.92
2019-05-09T20:01:40.038Z,5.95
2019-05-09T20:04:06.615Z,6.15
2019-05-09T20:06:32.980Z,7.00
2019-05-09T20:09:01.827Z,7.70
2019-05-09T20:11:33.546Z,6.22
2019-05-09T20:14:04.512Z,6.08
2019-05-09T20:16:44.792Z,5.90
2019-05-09T20:19:11.266Z,6.10
2019-05-09T20:21:37.628Z,7.47
2019-05-09T20:24:04.100Z,5.87
2019-05-09T20:26:30.534Z,7.08
2019-05-09T20:28:56.937Z,7.30
2019-05-09T20:31:23.174Z,8.58
2019-05-09T20:33:52.505Z,7.40
2019-05-09T20:36:18.954Z,6.40
2019-05-09T20:38:45.396Z,7.17
2019-05-09T20:41:11.724Z,6.50
2019-05-09T20:43:38.045Z,6.10
2019-05-09T20:46:04.411Z,6.15
2019-05-09T20:48:30.720Z,7.28
2019-05-09T20:50:57.109Z,7.12
2019-05-09T20:53:23.485Z,6.35
2019-05-09T20:55:49.879Z,5.70
2019-05-09T20:58:16.165Z,6.42
2019-05-09T21:00:42.448Z,6.58
2019-05-09T21:03:08.938Z,5.17
2019-05-09T21:05:35.372Z,7.37
2019-05-09T21:08:01.735Z,6.35
2019-05-09T21:10:28.113Z,5.62
2019-05-09T21:12:54.484Z,5.50
2019-05-09T21:15:20.883Z,4.78
2019-05-09T21:17:47.312Z,6.97
2019-05-09T21:20:13.926Z,8.03
2019-05-09T21:22:40.242Z,5.90
2019-05-09T21:25:06.887Z,6.28
2019-05-09T21:27:33.220Z,5.87
2019-05-09T21:29:59.520Z,4.97
2019-05-09T21:32:25.825Z,5.37
2019-05-09T21:34:52.170Z,6.42
2019-05-09T21:37:18.397Z,5.92
2019-05-09T21:39:44.645Z,7.85
2019-05-09T21:42:10.905Z,7.00
2019-05-09T21:44:37.169Z,6.95
2019-05-09T21:47:03.546Z,5.80
2019-05-09T21:49:29.947Z,5.90
2019-05-09T21:51:56.322Z,7.50
2019-05-09T21:54:22.651Z,4.92
2019-05-09T21:56:49.055Z,5.42
2019-05-09T21:59:15.438Z,5.22
2019-05-09T22:02:01.767Z,6.92
2019-05-09T22:04:28.161Z,4.75
2019-05-09T22:06:54.425Z,5.12
2019-05-09T22:09:20.678Z,4.37
2019-05-09T22:11:46.999Z,5.20
2019-05-09T22:14:15.224Z,4.22
2019-05-09T22:16:42.599Z,4.10
2019-05-09T22:19:08.834Z,5.67
2019-05-09T22:21:35.116Z,8.40
2019-05-09T22:24:01.460Z,5.20
2019-05-09T22:26:27.912Z,3.87
2019-05-09T22:28:56.870Z,5.37
2019-05-09T22:31:23.157Z,4.15
2019-05-09T22:33:49.395Z,4.08
2019-05-09T22:36:15.892Z,5.08
2019-05-09T22:38:43.671Z,5.85
2019-05-09T22:41:10.293Z,5.00
2019-05-09T22:43:36.594Z,4.65
2019-05-09T22:46:02.943Z,4.08
2019-05-09T22:48:29.268Z,4.47
2019-05-09T22:50:55.602Z,5.25
2019-05-09T22:53:21.970Z,4.33
2019-05-09T22:55:48.224Z,7.05
2019-05-09T22:58:14.486Z,6.62
2019-05-09T23:00:41.067Z,5.05
2019-05-09T23:03:07.422Z,5.40
2019-05-09T23:05:33.707Z,5.40
2019-05-09T23:07:59.939Z,5.03
2019-05-09T23:10:26.316Z,5.25
2019-05-09T23:12:52.822Z,6.42
2019-05-09T23:15:19.401Z,5.08
2019-05-09T23:17:45.757Z,5.03
2019-05-09T23:20:17.176Z,7.55
2019-05-09T23:22:46.095Z,6.25
2019-05-09T23:25:12.394Z,4.20
2019-05-09T23:27:38.644Z,9.23
2019-05-09T23:30:05.894Z,6.35
2019-05-09T23:32:34.159Z,6.53
2019-05-09T23:35:01.024Z,4.60
2019-05-09T23:37:27.353Z,6.78
2019-05-09T23:39:56.860Z,5.80
2019-05-09T23:42:23.297Z,6.67
2019-05-09T23:44:49.736Z,6.47
2019-05-09T23:47:16.154Z,9.05
2019-05-09T23:49:42.491Z,8.00
2019-05-09T23:52:08.942Z,6.85
2019-05-09T23:54:53.801Z,7.22
2019-05-09T23:57:38.768Z,7.33
